sensor_id;sensor_type;location;lat;lon;timestamp;pressure;altitude;pressure_sealevel;temperature;humidity
75692;BME280;64307;52.508;6.090;2023-07-24T00:00:13;100333.25;;;18.17;100.00
75692;BME280;64307;52.508;6.090;2023-07-24T00:02:38;100343.28;;;18.18;100.00
75692;BME280;64307;52.508;6.090;2023-07-24T00:05:03;100342.66;;;18.23;100.00
75692;BME280;64307;52.508;6.090;2023-07-24T00:07:29;100345.81;;;18.25;100.00
75692;BME280;64307;52.508;6.090;2023-07-24T00:09:54;100337.19;;;18.20;100.00
75692;BME280;64307;52.508;6.090;2023-07-24T00:12:20;100333.56;;;18.19;100.00
75692;BME280;64307;52.508;6.090;2023-07-24T00:14:45;100337.03;;;18.23;100.00
75692;BME280;64307;52.508;6.090;2023-07-24T00:17:11;100340.16;;;18.25;100.00
75692;BME280;64307;52.508;6.090;2023-07-24T00:19:36;100342.19;;;18.25;100.00
75692;BME280;64307;52.508;6.090;2023-07-24T00:22:01;100341.75;;;18.26;100.00
75692;BME280;64307;52.508;6.090;2023-07-24T00:24:26;100340.03;;;18.29;100.00
75692;BME280;64307;52.508;6.090;2023-07-24T00:26:52;100332.75;;;18.19;100.00
75692;BME280;64307;52.508;6.090;2023-07-24T00:29:18;100325.84;;;18.11;100.00
75692;BME280;64307;52.508;6.090;2023-07-24T00:31:44;100323.81;;;18.11;100.00
75692;BME280;64307;52.508;6.090;2023-07-24T00:34:09;100321.31;;;18.13;100.00
75692;BME280;64307;52.508;6.090;2023-07-24T00:36:34;100317.19;;;18.05;100.00
75692;BME280;64307;52.508;6.090;2023-07-24T00:38:59;100315.66;;;18.04;100.00
75692;BME280;64307;52.508;6.090;2023-07-24T00:41:25;100326.63;;;18.11;100.00
75692;BME280;64307;52.508;6.090;2023-07-24T00:43:50;100322.69;;;18.09;100.00
75692;BME280;64307;52.508;6.090;2023-07-24T00:46:16;100317.06;;;18.09;100.00
75692;BME280;64307;52.508;6.090;2023-07-24T00:48:41;100317.69;;;18.13;100.00
75692;BME280;64307;52.508;6.090;2023-07-24T00:51:06;100324.28;;;18.10;100.00
75692;BME280;64307;52.508;6.090;2023-07-24T00:53:32;100313.00;;;18.10;100.00
75692;BME280;64307;52.508;6.090;2023-07-24T00:55:57;100313.59;;;18.05;100.00
75692;BME280;64307;52.508;6.090;2023-07-24T00:58:22;100292.09;;;17.98;100.00
75692;BME280;64307;52.508;6.090;2023-07-24T01:00:48;100302.94;;;17.99;100.00
75692;BME280;64307;52.508;6.090;2023-07-24T01:03:15;100304.47;;;18.00;100.00
75692;BME280;64307;52.508;6.090;2023-07-24T01:05:40;100294.59;;;17.96;100.00
75692;BME280;64307;52.508;6.090;2023-07-24T01:08:06;100286.75;;;17.91;100.00
75692;BME280;64307;52.508;6.090;2023-07-24T01:10:32;100284.19;;;17.84;100.00
75692;BME280;64307;52.508;6.090;2023-07-24T01:13:01;100288.59;;;17.85;100.00
75692;BME280;64307;52.508;6.090;2023-07-24T01:15:48;100287.63;;;17.79;100.00
75692;BME280;64307;52.508;6.090;2023-07-24T01:18:17;100287.72;;;17.75;100.00
75692;BME280;64307;52.508;6.090;2023-07-24T01:20:44;100275.22;;;17.76;100.00
75692;BME280;64307;52.508;6.090;2023-07-24T01:26:00;100267.50;;;17.68;100.00
75692;BME280;64307;52.508;6.090;2023-07-24T01:28:28;100270.78;;;17.66;100.00
75692;BME280;64307;52.508;6.090;2023-07-24T01:30:54;100264.50;;;17.62;100.00
75692;BME280;64307;52.508;6.090;2023-07-24T01:33:20;100256.31;;;17.55;100.00
75692;BME280;64307;52.508;6.090;2023-07-24T01:35:48;100251.59;;;17.52;100.00
75692;BME280;64307;52.508;6.090;2023-07-24T01:38:16;100251.28;;;17.50;100.00
75692;BME280;64307;52.508;6.090;2023-07-24T01:40:42;100258.25;;;17.46;100.00
75692;BME280;64307;52.508;6.090;2023-07-24T01:43:07;100262.28;;;17.45;100.00
75692;BME280;64307;52.508;6.090;2023-07-24T01:45:33;100261.53;;;17.44;100.00
75692;BME280;64307;52.508;6.090;2023-07-24T01:47:59;100249.94;;;17.42;100.00
75692;BME280;64307;52.508;6.090;2023-07-24T01:50:24;100257.91;;;17.44;100.00
75692;BME280;64307;52.508;6.090;2023-07-24T01:52:49;100258.50;;;17.39;100.00
75692;BME280;64307;52.508;6.090;2023-07-24T01:55:15;100260.09;;;17.40;100.00
75692;BME280;64307;52.508;6.090;2023-07-24T01:57:40;100246.59;;;17.35;100.00
75692;BME280;64307;52.508;6.090;2023-07-24T02:00:06;100252.53;;;17.37;100.00
75692;BME280;64307;52.508;6.090;2023-07-24T02:02:31;100252.53;;;17.37;100.00
75692;BME280;64307;52.508;6.090;2023-07-24T02:04:56;100256.28;;;17.34;100.00
75692;BME280;64307;52.508;6.090;2023-07-24T02:07:22;100250.31;;;17.32;100.00
75692;BME280;64307;52.508;6.090;2023-07-24T02:09:47;100259.25;;;17.30;100.00
75692;BME280;64307;52.508;6.090;2023-07-24T02:12:12;100256.53;;;17.27;100.00
75692;BME280;64307;52.508;6.090;2023-07-24T02:14:38;100257.47;;;17.24;100.00
75692;BME280;64307;52.508;6.090;2023-07-24T02:17:03;100254.66;;;17.24;100.00
75692;BME280;64307;52.508;6.090;2023-07-24T02:19:28;100240.81;;;17.16;100.00
75692;BME280;64307;52.508;6.090;2023-07-24T02:21:54;100246.31;;;17.20;100.00
75692;BME280;64307;52.508;6.090;2023-07-24T02:24:19;100243.97;;;17.18;100.00
75692;BME280;64307;52.508;6.090;2023-07-24T02:26:44;100252.06;;;17.16;100.00
75692;BME280;64307;52.508;6.090;2023-07-24T02:29:09;100238.94;;;17.13;100.00
75692;BME280;64307;52.508;6.090;2023-07-24T02:31:35;100246.78;;;17.18;100.00
75692;BME280;64307;52.508;6.090;2023-07-24T02:34:01;100240.25;;;17.22;100.00
75692;BME280;64307;52.508;6.090;2023-07-24T02:36:26;100245.72;;;17.25;100.00
75692;BME280;64307;52.508;6.090;2023-07-24T02:38:52;100240.75;;;17.29;100.00
75692;BME280;64307;52.508;6.090;2023-07-24T02:41:17;100234.56;;;17.34;100.00
75692;BME280;64307;52.508;6.090;2023-07-24T02:43:43;100232.50;;;17.35;100.00
75692;BME280;64307;52.508;6.090;2023-07-24T02:46:08;100240.94;;;17.35;100.00
75692;BME280;64307;52.508;6.090;2023-07-24T02:48:33;100234.56;;;17.34;100.00
75692;BME280;64307;52.508;6.090;2023-07-24T02:50:58;100238.59;;;17.33;100.00
75692;BME280;64307;52.508;6.090;2023-07-24T02:53:24;100237.81;;;17.33;100.00
75692;BME280;64307;52.508;6.090;2023-07-24T02:55:49;100236.25;;;17.32;100.00
75692;BME280;64307;52.508;6.090;2023-07-24T02:58:15;100233.44;;;17.32;100.00
75692;BME280;64307;52.508;6.090;2023-07-24T03:00:40;100245.50;;;17.32;100.00
75692;BME280;64307;52.508;6.090;2023-07-24T03:03:05;100243.13;;;17.31;100.00
75692;BME280;64307;52.508;6.090;2023-07-24T03:05:31;100244.41;;;17.39;100.00
75692;BME280;64307;52.508;6.090;2023-07-24T03:07:57;100256.63;;;17.36;100.00
75692;BME280;64307;52.508;6.090;2023-07-24T03:10:23;100249.41;;;17.35;100.00
75692;BME280;64307;52.508;6.090;2023-07-24T03:12:48;100239.66;;;17.27;100.00
75692;BME280;64307;52.508;6.090;2023-07-24T03:15:14;100225.56;;;17.27;100.00
75692;BME280;64307;52.508;6.090;2023-07-24T03:17:39;100231.84;;;17.31;100.00
75692;BME280;64307;52.508;6.090;2023-07-24T03:20:17;100232.66;;;17.31;100.00
75692;BME280;64307;52.508;6.090;2023-07-24T03:22:43;100241.88;;;17.32;100.00
75692;BME280;64307;52.508;6.090;2023-07-24T03:25:09;100234.56;;;17.34;100.00
75692;BME280;64307;52.508;6.090;2023-07-24T03:27:34;100238.94;;;17.35;100.00
75692;BME280;64307;52.508;6.090;2023-07-24T03:30:00;100235.00;;;17.33;100.00
75692;BME280;64307;52.508;6.090;2023-07-24T03:32:25;100220.41;;;17.25;100.00
75692;BME280;64307;52.508;6.090;2023-07-24T03:34:50;100221.53;;;17.28;100.00
75692;BME280;64307;52.508;6.090;2023-07-24T03:37:16;100246.25;;;17.33;100.00
75692;BME280;64307;52.508;6.090;2023-07-24T03:39:42;100229.03;;;17.31;100.00
75692;BME280;64307;52.508;6.090;2023-07-24T03:42:10;100220.25;;;17.29;100.00
75692;BME280;64307;52.508;6.090;2023-07-24T03:44:39;100209.94;;;17.26;100.00
75692;BME280;64307;52.508;6.090;2023-07-24T03:47:04;100211.06;;;17.28;100.00
75692;BME280;64307;52.508;6.090;2023-07-24T03:49:29;100213.88;;;17.28;100.00
75692;BME280;64307;52.508;6.090;2023-07-24T03:51:54;100208.09;;;17.32;100.00
75692;BME280;64307;52.508;6.090;2023-07-24T03:54:20;100184.28;;;17.24;100.00
75692;BME280;64307;52.508;6.090;2023-07-24T03:56:45;100192.59;;;17.27;100.00
75692;BME280;64307;52.508;6.090;2023-07-24T03:59:10;100184.78;;;17.31;100.00
75692;BME280;64307;52.508;6.090;2023-07-24T04:01:37;100183.69;;;17.29;100.00
75692;BME280;64307;52.508;6.090;2023-07-24T04:04:03;100194.28;;;17.25;100.00
75692;BME280;64307;52.508;6.090;2023-07-24T04:06:28;100196.31;;;17.24;100.00
75692;BME280;64307;52.508;6.090;2023-07-24T04:08:53;100186.63;;;17.25;100.00
75692;BME280;64307;52.508;6.090;2023-07-24T04:11:18;100191.03;;;17.26;100.00
75692;BME280;64307;52.508;6.090;2023-07-24T04:13:44;100197.75;;;17.29;100.00
75692;BME280;64307;52.508;6.090;2023-07-24T04:16:09;100185.03;;;17.24;100.00
75692;BME280;64307;52.508;6.090;2023-07-24T04:18:34;100189.91;;;17.24;100.00
75692;BME280;64307;52.508;6.090;2023-07-24T04:20:59;100205.88;;;17.27;100.00
75692;BME280;64307;52.508;6.090;2023-07-24T04:23:25;100198.78;;;17.22;100.00
75692;BME280;64307;52.508;6.090;2023-07-24T04:25:50;100191.94;;;17.23;100.00
75692;BME280;64307;52.508;6.090;2023-07-24T04:28:15;100195.72;;;17.29;100.00
75692;BME280;64307;52.508;6.090;2023-07-24T04:30:41;100200.25;;;17.27;100.00
75692;BME280;64307;52.508;6.090;2023-07-24T04:33:06;100190.56;;;17.28;100.00
75692;BME280;64307;52.508;6.090;2023-07-24T04:35:31;100194.81;;;17.32;100.00
75692;BME280;64307;52.508;6.090;2023-07-24T04:37:57;100194.03;;;17.32;100.00
75692;BME280;64307;52.508;6.090;2023-07-24T04:40:23;100181.50;;;17.33;100.00
75692;BME280;64307;52.508;6.090;2023-07-24T04:42:48;100186.88;;;17.40;100.00
75692;BME280;64307;52.508;6.090;2023-07-24T04:45:13;100179.50;;;17.33;100.00
75692;BME280;64307;52.508;6.090;2023-07-24T04:47:39;100181.25;;;17.40;100.00
75692;BME280;64307;52.508;6.090;2023-07-24T04:50:04;100172.50;;;17.38;100.00
75692;BME280;64307;52.508;6.090;2023-07-24T04:52:30;100191.47;;;17.46;100.00
75692;BME280;64307;52.508;6.090;2023-07-24T04:54:55;100192.00;;;17.54;100.00
75692;BME280;64307;52.508;6.090;2023-07-24T04:57:20;100179.19;;;17.53;100.00
75692;BME280;64307;52.508;6.090;2023-07-24T04:59:46;100179.84;;;17.57;100.00
75692;BME280;64307;52.508;6.090;2023-07-24T05:02:11;100197.16;;;17.55;100.00
75692;BME280;64307;52.508;6.090;2023-07-24T05:04:36;100164.50;;;17.58;100.00
75692;BME280;64307;52.508;6.090;2023-07-24T05:07:02;100166.44;;;17.70;100.00
75692;BME280;64307;52.508;6.090;2023-07-24T05:09:27;100173.97;;;17.73;100.00
75692;BME280;64307;52.508;6.090;2023-07-24T05:11:52;100171.34;;;17.78;100.00
75692;BME280;64307;52.508;6.090;2023-07-24T05:14:18;100177.66;;;17.91;100.00
75692;BME280;64307;52.508;6.090;2023-07-24T05:16:43;100177.19;;;17.93;100.00
75692;BME280;64307;52.508;6.090;2023-07-24T05:19:08;100178.31;;;17.95;100.00
75692;BME280;64307;52.508;6.090;2023-07-24T05:21:33;100175.66;;;18.01;100.00
75692;BME280;64307;52.508;6.090;2023-07-24T05:23:59;100179.91;;;18.06;100.00
75692;BME280;64307;52.508;6.090;2023-07-24T05:26:24;100181.00;;;18.08;100.00
75692;BME280;64307;52.508;6.090;2023-07-24T05:28:49;100178.63;;;18.07;100.00
75692;BME280;64307;52.508;6.090;2023-07-24T05:31:14;100180.88;;;18.21;100.00
75692;BME280;64307;52.508;6.090;2023-07-24T05:33:40;100175.19;;;18.02;100.00
75692;BME280;64307;52.508;6.090;2023-07-24T05:36:05;100182.09;;;18.02;100.00
75692;BME280;64307;52.508;6.090;2023-07-24T05:38:31;100189.28;;;18.02;100.00
75692;BME280;64307;52.508;6.090;2023-07-24T05:40:57;100189.28;;;18.02;100.00
75692;BME280;64307;52.508;6.090;2023-07-24T05:43:23;100181.84;;;17.87;100.00
75692;BME280;64307;52.508;6.090;2023-07-24T05:45:50;100179.06;;;17.96;100.00
75692;BME280;64307;52.508;6.090;2023-07-24T05:48:15;100188.59;;;17.89;100.00
75692;BME280;64307;52.508;6.090;2023-07-24T05:50:41;100188.41;;;17.84;100.00
75692;BME280;64307;52.508;6.090;2023-07-24T05:53:06;100192.56;;;18.01;100.00
75692;BME280;64307;52.508;6.090;2023-07-24T05:55:32;100195.09;;;18.66;100.00
75692;BME280;64307;52.508;6.090;2023-07-24T05:57:57;100186.84;;;22.44;84.02
75692;BME280;64307;52.508;6.090;2023-07-24T06:00:24;100195.06;;;21.78;84.16
75692;BME280;64307;52.508;6.090;2023-07-24T06:02:49;100190.78;;;23.79;75.78
75692;BME280;64307;52.508;6.090;2023-07-24T06:05:14;100187.03;;;22.21;81.00
75692;BME280;64307;52.508;6.090;2023-07-24T06:07:40;100197.78;;;20.91;86.72
75692;BME280;64307;52.508;6.090;2023-07-24T06:10:05;100205.56;;;20.16;91.38
75692;BME280;64307;52.508;6.090;2023-07-24T06:12:31;100192.94;;;19.42;95.01
75692;BME280;64307;52.508;6.090;2023-07-24T06:14:57;100189.19;;;19.00;99.07
75692;BME280;64307;52.508;6.090;2023-07-24T06:17:23;100199.53;;;18.85;99.68
75692;BME280;64307;52.508;6.090;2023-07-24T06:19:48;100199.38;;;19.34;98.82
75692;BME280;64307;52.508;6.090;2023-07-24T06:22:13;100191.25;;;20.28;91.45
75692;BME280;64307;52.508;6.090;2023-07-24T06:24:39;100199.09;;;20.33;90.58
75692;BME280;64307;52.508;6.090;2023-07-24T06:27:04;100200.41;;;20.23;90.82
75692;BME280;64307;52.508;6.090;2023-07-24T06:29:32;100196.66;;;21.12;87.05
75692;BME280;64307;52.508;6.090;2023-07-24T06:31:57;100192.44;;;21.60;83.05
75692;BME280;64307;52.508;6.090;2023-07-24T06:34:22;100185.47;;;20.14;89.95
75692;BME280;64307;52.508;6.090;2023-07-24T06:36:48;100191.63;;;20.45;88.87
75692;BME280;64307;52.508;6.090;2023-07-24T06:39:13;100188.16;;;21.12;85.49
75692;BME280;64307;52.508;6.090;2023-07-24T06:41:38;100199.50;;;20.88;85.61
75692;BME280;64307;52.508;6.090;2023-07-24T06:44:04;100190.31;;;20.31;89.17
75692;BME280;64307;52.508;6.090;2023-07-24T06:46:30;100196.56;;;20.59;87.86
75692;BME280;64307;52.508;6.090;2023-07-24T06:48:55;100198.56;;;24.46;70.40
75692;BME280;64307;52.508;6.090;2023-07-24T06:51:20;100193.84;;;27.70;57.47
75692;BME280;64307;52.508;6.090;2023-07-24T06:53:45;100191.19;;;27.36;56.51
75692;BME280;64307;52.508;6.090;2023-07-24T06:56:11;100187.38;;;26.38;60.00
75692;BME280;64307;52.508;6.090;2023-07-24T06:58:36;100189.47;;;25.76;61.14
75692;BME280;64307;52.508;6.090;2023-07-24T07:01:05;100188.06;;;26.77;57.55
75692;BME280;64307;52.508;6.090;2023-07-24T07:03:31;100195.00;;;24.20;66.32
75692;BME280;64307;52.508;6.090;2023-07-24T07:05:59;100196.75;;;23.81;68.61
75692;BME280;64307;52.508;6.090;2023-07-24T07:08:24;100204.09;;;22.75;71.93
75692;BME280;64307;52.508;6.090;2023-07-24T07:10:55;100208.81;;;22.64;74.12
75692;BME280;64307;52.508;6.090;2023-07-24T07:13:21;100204.75;;;21.86;76.77
75692;BME280;64307;52.508;6.090;2023-07-24T07:15:46;100189.31;;;22.02;75.79
75692;BME280;64307;52.508;6.090;2023-07-24T07:18:11;100196.78;;;22.54;74.36
75692;BME280;64307;52.508;6.090;2023-07-24T07:20:36;100208.75;;;21.94;77.37
75692;BME280;64307;52.508;6.090;2023-07-24T07:23:02;100195.84;;;21.64;78.13
75692;BME280;64307;52.508;6.090;2023-07-24T07:25:27;100179.38;;;25.92;61.00
75692;BME280;64307;52.508;6.090;2023-07-24T07:27:52;100192.38;;;25.01;64.36
75692;BME280;64307;52.508;6.090;2023-07-24T07:30:18;100195.25;;;25.06;61.13
75692;BME280;64307;52.508;6.090;2023-07-24T07:32:43;100200.91;;;26.21;58.67
75692;BME280;64307;52.508;6.090;2023-07-24T07:35:08;100188.44;;;23.77;65.71
75692;BME280;64307;52.508;6.090;2023-07-24T07:37:33;100193.97;;;25.07;63.38
75692;BME280;64307;52.508;6.090;2023-07-24T07:39:59;100195.31;;;25.23;61.12
75692;BME280;64307;52.508;6.090;2023-07-24T07:42:24;100184.53;;;26.43;57.65
75692;BME280;64307;52.508;6.090;2023-07-24T07:44:49;100187.91;;;27.16;55.15
75692;BME280;64307;52.508;6.090;2023-07-24T07:47:14;100190.63;;;27.84;53.97
75692;BME280;64307;52.508;6.090;2023-07-24T07:49:40;100201.03;;;24.27;64.84
75692;BME280;64307;52.508;6.090;2023-07-24T07:52:06;100200.44;;;23.87;66.42
75692;BME280;64307;52.508;6.090;2023-07-24T07:54:33;100194.16;;;22.86;69.32
75692;BME280;64307;52.508;6.090;2023-07-24T07:56:58;100181.06;;;22.53;71.14
75692;BME280;64307;52.508;6.090;2023-07-24T07:59:24;100174.56;;;22.33;72.03
75692;BME280;64307;52.508;6.090;2023-07-24T08:01:49;100190.03;;;23.07;69.61
75692;BME280;64307;52.508;6.090;2023-07-24T08:04:14;100181.78;;;22.34;71.74
75692;BME280;64307;52.508;6.090;2023-07-24T08:06:40;100189.41;;;22.42;71.94
75692;BME280;64307;52.508;6.090;2023-07-24T08:09:05;100196.75;;;21.85;74.67
75692;BME280;64307;52.508;6.090;2023-07-24T08:11:30;100188.03;;;21.74;75.11
75692;BME280;64307;52.508;6.090;2023-07-24T08:13:56;100184.13;;;22.00;73.92
75692;BME280;64307;52.508;6.090;2023-07-24T08:16:21;100195.66;;;22.12;75.06
75692;BME280;64307;52.508;6.090;2023-07-24T08:18:47;100191.59;;;21.83;75.99
75692;BME280;64307;52.508;6.090;2023-07-24T08:21:14;100182.56;;;21.99;74.91
75692;BME280;64307;52.508;6.090;2023-07-24T08:23:39;100177.78;;;21.91;74.70
75692;BME280;64307;52.508;6.090;2023-07-24T08:26:05;100175.88;;;22.17;73.06
75692;BME280;64307;52.508;6.090;2023-07-24T08:28:31;100178.66;;;22.87;71.73
75692;BME280;64307;52.508;6.090;2023-07-24T08:30:57;100179.13;;;23.77;67.79
75692;BME280;64307;52.508;6.090;2023-07-24T08:33:23;100172.75;;;25.25;62.88
75692;BME280;64307;52.508;6.090;2023-07-24T08:36:01;100170.00;;;26.19;58.99
75692;BME280;64307;52.508;6.090;2023-07-24T08:38:27;100176.19;;;26.40;57.75
75692;BME280;64307;52.508;6.090;2023-07-24T08:41:07;100171.19;;;26.79;55.86
75692;BME280;64307;52.508;6.090;2023-07-24T08:43:35;100172.94;;;26.99;55.78
75692;BME280;64307;52.508;6.090;2023-07-24T08:46:02;100178.94;;;23.86;64.84
75692;BME280;64307;52.508;6.090;2023-07-24T08:48:38;100173.81;;;23.33;67.90
75692;BME280;64307;52.508;6.090;2023-07-24T08:51:09;100167.41;;;23.69;67.75
75692;BME280;64307;52.508;6.090;2023-07-24T08:53:37;100179.25;;;23.62;67.54
75692;BME280;64307;52.508;6.090;2023-07-24T08:56:03;100168.84;;;24.16;66.12
75692;BME280;64307;52.508;6.090;2023-07-24T08:58:29;100170.22;;;23.38;67.32
75692;BME280;64307;52.508;6.090;2023-07-24T09:00:56;100177.03;;;23.00;69.12
75692;BME280;64307;52.508;6.090;2023-07-24T09:03:22;100174.69;;;22.99;68.78
75692;BME280;64307;52.508;6.090;2023-07-24T09:05:47;100176.06;;;23.29;68.88
75692;BME280;64307;52.508;6.090;2023-07-24T09:08:13;100180.41;;;23.24;68.46
75692;BME280;64307;52.508;6.090;2023-07-24T09:10:39;100180.81;;;23.17;68.48
75692;BME280;64307;52.508;6.090;2023-07-24T09:13:04;100173.09;;;23.18;68.52
75692;BME280;64307;52.508;6.090;2023-07-24T09:15:39;100167.91;;;23.16;68.16
75692;BME280;64307;52.508;6.090;2023-07-24T09:18:05;100154.69;;;23.13;67.98
75692;BME280;64307;52.508;6.090;2023-07-24T09:20:41;100160.94;;;23.17;67.51
75692;BME280;64307;52.508;6.090;2023-07-24T09:23:07;100149.56;;;23.37;67.17
75692;BME280;64307;52.508;6.090;2023-07-24T09:25:37;100156.16;;;23.54;66.21
75692;BME280;64307;52.508;6.090;2023-07-24T09:28:12;100158.28;;;23.59;65.78
75692;BME280;64307;52.508;6.090;2023-07-24T09:30:38;100145.34;;;23.58;64.59
75692;BME280;64307;52.508;6.090;2023-07-24T09:33:04;100162.06;;;24.08;63.43
75692;BME280;64307;52.508;6.090;2023-07-24T09:35:30;100151.97;;;24.49;61.40
75692;BME280;64307;52.508;6.090;2023-07-24T09:38:22;100152.56;;;24.64;60.70
75692;BME280;64307;52.508;6.090;2023-07-24T09:40:47;100143.28;;;26.22;56.56
75692;BME280;64307;52.508;6.090;2023-07-24T09:43:26;100147.59;;;26.56;54.37
75692;BME280;64307;52.508;6.090;2023-07-24T09:45:53;100148.56;;;26.81;53.43
75692;BME280;64307;52.508;6.090;2023-07-24T09:48:20;100142.53;;;25.61;53.99
75692;BME280;64307;52.508;6.090;2023-07-24T09:50:47;100152.69;;;24.86;58.19
75692;BME280;64307;52.508;6.090;2023-07-24T09:53:33;100140.34;;;25.17;57.27
75692;BME280;64307;52.508;6.090;2023-07-24T09:56:03;100143.47;;;25.19;57.16
75692;BME280;64307;52.508;6.090;2023-07-24T09:58:32;100144.81;;;25.35;58.16
75692;BME280;64307;52.508;6.090;2023-07-24T10:00:58;100130.13;;;26.76;53.15
75692;BME280;64307;52.508;6.090;2023-07-24T10:03:24;100129.63;;;27.95;50.38
75692;BME280;64307;52.508;6.090;2023-07-24T10:05:50;100128.72;;;28.11;50.86
75692;BME280;64307;52.508;6.090;2023-07-24T10:08:18;100127.25;;;27.28;51.93
75692;BME280;64307;52.508;6.090;2023-07-24T10:10:44;100126.44;;;25.58;55.22
75692;BME280;64307;52.508;6.090;2023-07-24T10:13:11;100131.56;;;25.26;56.39
75692;BME280;64307;52.508;6.090;2023-07-24T10:15:41;100121.97;;;25.29;57.03
75692;BME280;64307;52.508;6.090;2023-07-24T10:18:07;100127.47;;;24.68;58.31
75692;BME280;64307;52.508;6.090;2023-07-24T10:20:38;100129.38;;;24.88;59.55
75692;BME280;64307;52.508;6.090;2023-07-24T10:23:06;100121.50;;;24.66;58.66
75692;BME280;64307;52.508;6.090;2023-07-24T10:25:33;100104.59;;;25.22;57.35
75692;BME280;64307;52.508;6.090;2023-07-24T10:28:07;100120.41;;;25.17;58.67
75692;BME280;64307;52.508;6.090;2023-07-24T10:30:41;100124.69;;;24.74;58.25
75692;BME280;64307;52.508;6.090;2023-07-24T10:35:48;100107.63;;;24.31;59.51
75692;BME280;64307;52.508;6.090;2023-07-24T10:38:15;100107.47;;;24.57;58.70
75692;BME280;64307;52.508;6.090;2023-07-24T10:40:43;100114.88;;;23.96;59.96
75692;BME280;64307;52.508;6.090;2023-07-24T10:43:10;100105.22;;;24.19;59.33
75692;BME280;64307;52.508;6.090;2023-07-24T10:48:05;100109.06;;;24.58;59.40
75692;BME280;64307;52.508;6.090;2023-07-24T10:50:57;100114.66;;;24.89;57.03
75692;BME280;64307;52.508;6.090;2023-07-24T10:53:22;100091.84;;;24.89;57.40
75692;BME280;64307;52.508;6.090;2023-07-24T10:55:49;100090.84;;;25.09;58.62
75692;BME280;64307;52.508;6.090;2023-07-24T10:58:16;100069.97;;;24.59;58.97
75692;BME280;64307;52.508;6.090;2023-07-24T11:00:45;100103.56;;;25.08;58.68
75692;BME280;64307;52.508;6.090;2023-07-24T11:03:12;100101.56;;;24.13;60.23
75692;BME280;64307;52.508;6.090;2023-07-24T11:05:42;100100.50;;;25.67;57.57
75692;BME280;64307;52.508;6.090;2023-07-24T11:08:18;100100.38;;;27.48;51.76
75692;BME280;64307;52.508;6.090;2023-07-24T11:10:48;100107.63;;;27.49;52.19
75692;BME280;64307;52.508;6.090;2023-07-24T11:13:14;100105.06;;;27.75;50.42
75692;BME280;64307;52.508;6.090;2023-07-24T11:15:40;100114.69;;;26.39;53.95
75692;BME280;64307;52.508;6.090;2023-07-24T11:18:05;100108.75;;;26.20;55.26
75692;BME280;64307;52.508;6.090;2023-07-24T11:20:37;100097.44;;;27.18;53.28
75692;BME280;64307;52.508;6.090;2023-07-24T11:23:03;100109.81;;;26.23;54.53
75692;BME280;64307;52.508;6.090;2023-07-24T11:25:28;100107.94;;;25.03;56.00
75692;BME280;64307;52.508;6.090;2023-07-24T11:27:54;100096.34;;;25.46;56.45
75692;BME280;64307;52.508;6.090;2023-07-24T11:30:20;100103.34;;;25.89;54.09
75692;BME280;64307;52.508;6.090;2023-07-24T11:32:48;100107.75;;;25.46;55.54
75692;BME280;64307;52.508;6.090;2023-07-24T11:35:15;100112.44;;;25.60;54.29
75692;BME280;64307;52.508;6.090;2023-07-24T11:37:40;100109.75;;;26.39;53.55
75692;BME280;64307;52.508;6.090;2023-07-24T11:40:06;100091.41;;;27.27;51.58
75692;BME280;64307;52.508;6.090;2023-07-24T11:42:39;100100.47;;;26.91;51.46
75692;BME280;64307;52.508;6.090;2023-07-24T11:45:06;100091.31;;;26.98;51.42
75692;BME280;64307;52.508;6.090;2023-07-24T11:50:08;100102.50;;;27.72;50.59
75692;BME280;64307;52.508;6.090;2023-07-24T11:52:38;100111.47;;;27.16;50.45
75692;BME280;64307;52.508;6.090;2023-07-24T11:55:05;100103.84;;;27.35;48.99
75692;BME280;64307;52.508;6.090;2023-07-24T11:57:31;100099.97;;;27.92;49.47
75692;BME280;64307;52.508;6.090;2023-07-24T11:59:56;100104.34;;;27.39;50.17
75692;BME280;64307;52.508;6.090;2023-07-24T12:02:28;100104.53;;;27.47;48.29
75692;BME280;64307;52.508;6.090;2023-07-24T12:04:55;100091.66;;;27.65;48.99
75692;BME280;64307;52.508;6.090;2023-07-24T12:07:23;100089.72;;;26.56;50.89
75692;BME280;64307;52.508;6.090;2023-07-24T12:09:54;100098.34;;;26.34;51.36
75692;BME280;64307;52.508;6.090;2023-07-24T12:12:19;100092.50;;;26.72;52.15
75692;BME280;64307;52.508;6.090;2023-07-24T12:14:45;100095.06;;;26.82;50.62
75692;BME280;64307;52.508;6.090;2023-07-24T12:17:10;100094.56;;;26.66;51.02
75692;BME280;64307;52.508;6.090;2023-07-24T12:19:39;100097.56;;;26.28;51.66
75692;BME280;64307;52.508;6.090;2023-07-24T12:22:04;100097.34;;;25.15;53.52
75692;BME280;64307;52.508;6.090;2023-07-24T12:24:29;100091.09;;;25.16;55.14
75692;BME280;64307;52.508;6.090;2023-07-24T12:26:55;100095.28;;;25.38;54.91
75692;BME280;64307;52.508;6.090;2023-07-24T12:29:20;100089.03;;;25.11;55.55
75692;BME280;64307;52.508;6.090;2023-07-24T12:31:45;100083.41;;;25.45;55.92
75692;BME280;64307;52.508;6.090;2023-07-24T12:34:11;100061.06;;;26.72;52.18
75692;BME280;64307;52.508;6.090;2023-07-24T12:36:36;100066.25;;;26.68;51.64
75692;BME280;64307;52.508;6.090;2023-07-24T12:39:01;100057.94;;;27.17;51.88
75692;BME280;64307;52.508;6.090;2023-07-24T12:41:27;100067.72;;;26.23;51.08
75692;BME280;64307;52.508;6.090;2023-07-24T12:43:54;100067.78;;;26.07;51.89
75692;BME280;64307;52.508;6.090;2023-07-24T12:46:19;100064.44;;;25.36;55.57
75692;BME280;64307;52.508;6.090;2023-07-24T12:48:46;100065.50;;;24.41;57.43
75692;BME280;64307;52.508;6.090;2023-07-24T12:51:11;100063.25;;;24.62;58.02